Time;durP1;ratioP1;P1;durP2;ratioP2;P2;SDS_P1;SDS_P2;PMS_P1;PMS_P2;Temp;Humidity;BMP_temperature;BMP_pressure;BME280_temperature;BME280_humidity;BME280_pressure;Samples;Min_cycle;Max_cycle;Signal;HPM_P1;HPM_P2
2022/05/28 00:01:33;;;;;;;1.50;1.40;;;12.70;99.90;;;;;;5019153;28;20045;-37
2022/05/28 00:04:04;;;;;;;1.58;1.40;;;12.70;99.90;;;;;;5022555;28;20509;-38
2022/05/28 00:06:30;;;;;;;1.30;1.20;;;12.70;99.90;;;;;;5017040;28;20069;-40
2022/05/28 00:08:59;;;;;;;3.00;1.70;;;12.70;99.90;;;;;;5025733;28;20022;-37
2022/05/28 00:11:30;;;;;;;;;;;12.70;99.90;;;;;;5023675;28;20130;-38
2022/05/28 00:13:56;;;;;;;1.58;1.40;;;12.60;99.90;;;;;;5026641;28;19913;-37
2022/05/28 00:16:22;;;;;;;1.42;1.33;;;12.60;99.90;;;;;;5018986;28;20037;-36
2022/05/28 00:18:49;;;;;;;1.77;1.65;;;12.70;99.90;;;;;;5023211;28;20486;-37
2022/05/28 00:21:15;;;;;;;1.60;1.45;;;12.60;99.90;;;;;;5023934;28;20032;-38
2022/05/28 00:23:44;;;;;;;1.50;1.40;;;12.70;99.90;;;;;;5021817;28;20510;-38
2022/05/28 00:26:11;;;;;;;2.67;1.50;;;12.70;99.90;;;;;;5021274;28;20448;-36
2022/05/28 00:28:36;;;;;;;1.65;1.52;;;12.70;99.90;;;;;;5020797;28;20409;-38
2022/05/28 00:31:02;;;;;;;1.42;1.33;;;12.70;99.90;;;;;;5021067;28;20049;-37
2022/05/28 00:33:30;;;;;;;2.00;1.60;;;12.70;99.90;;;;;;5020796;28;20057;-38
2022/05/28 00:35:56;;;;;;;2.08;1.60;;;12.70;99.90;;;;;;5020962;28;21344;-37
2022/05/28 00:38:24;;;;;;;2.95;2.00;;;12.70;99.90;;;;;;5022174;28;20478;-39
2022/05/28 00:40:53;;;;;;;2.45;1.95;;;12.50;99.90;;;;;;5019463;28;20468;-38
2022/05/28 00:43:19;;;;;;;1.67;1.58;;;12.30;99.90;;;;;;5023911;28;20032;-38
2022/05/28 00:45:47;;;;;;;3.08;1.92;;;12.40;99.90;;;;;;5022953;28;20041;-40
2022/05/28 00:48:19;;;;;;;1.55;1.45;;;12.40;99.90;;;;;;5021621;28;20033;-39
2022/05/28 00:50:45;;;;;;;2.20;1.70;;;12.40;99.90;;;;;;5022664;28;20022;-39
2022/05/28 00:53:10;;;;;;;1.60;1.50;;;12.50;99.90;;;;;;5018759;28;20088;-40
2022/05/28 00:55:36;;;;;;;3.85;1.60;;;12.40;99.90;;;;;;5024471;28;20025;-39
2022/05/28 00:58:06;;;;;;;2.03;1.83;;;12.40;99.90;;;;;;5020946;28;20030;-36
2022/05/28 01:00:33;;;;;;;1.98;1.60;;;12.40;99.90;;;;;;5020374;28;20033;-39
2022/05/28 01:03:29;;;;;;;1.80;1.70;;;12.40;99.90;;;;;;5019673;28;20082;-37
2022/05/28 01:06:05;;;;;;;2.15;1.63;;;12.40;99.90;;;;;;5015798;28;20042;-36
2022/05/28 01:08:37;;;;;;;2.45;1.70;;;12.50;99.90;;;;;;5021531;28;20037;-40
2022/05/28 01:11:10;;;;;;;3.95;2.05;;;12.40;99.90;;;;;;5018325;28;20030;-37
2022/05/28 01:14:05;;;;;;;2.78;2.00;;;12.50;99.90;;;;;;5024756;28;20501;-40
2022/05/28 01:16:33;;;;;;;1.70;1.60;;;12.50;99.90;;;;;;5017983;28;20126;-40
2022/05/28 01:19:02;;;;;;;2.28;1.70;;;12.50;99.90;;;;;;5015704;28;20104;-37
2022/05/28 01:21:30;;;;;;;;;;;12.60;99.90;;;;;;5020414;28;20100;-37
2022/05/28 01:24:15;;;;;;;1.92;1.75;;;12.40;99.90;;;;;;5011879;28;19932;-37
2022/05/28 01:26:57;;;;;;;1.83;1.73;;;12.40;99.90;;;;;;5016229;28;20029;-38
2022/05/28 01:29:26;;;;;;;2.13;1.92;;;12.50;99.90;;;;;;5020547;28;20043;-37
2022/05/28 01:31:54;;;;;;;3.95;2.05;;;12.60;99.90;;;;;;5013778;28;20437;-37
2022/05/28 01:34:21;;;;;;;2.45;2.00;;;12.60;99.90;;;;;;5028052;28;20581;-38
2022/05/28 01:36:48;;;;;;;1.63;1.52;;;12.60;99.90;;;;;;5021882;28;20026;-39
2022/05/28 01:39:15;;;;;;;2.88;1.73;;;12.60;99.90;;;;;;5020374;28;20111;-39
2022/05/28 01:41:43;;;;;;;2.03;1.75;;;12.70;99.90;;;;;;5022040;28;20033;-38
2022/05/28 01:44:12;;;;;;;3.03;2.08;;;12.70;99.90;;;;;;5018144;28;20128;-38
2022/05/28 01:46:39;;;;;;;3.25;1.95;;;12.70;99.90;;;;;;5020219;28;20017;-38
2022/05/28 01:49:09;;;;;;;1.83;1.73;;;12.70;99.90;;;;;;5024050;28;20026;-36
2022/05/28 01:51:42;;;;;;;2.03;1.75;;;12.70;99.90;;;;;;5023747;28;20033;-40
2022/05/28 01:54:11;;;;;;;3.72;1.83;;;12.70;99.90;;;;;;5022478;28;20367;-38
2022/05/28 01:56:43;;;;;;;2.10;1.90;;;12.70;99.90;;;;;;5023652;28;20060;-40
2022/05/28 01:59:11;;;;;;;4.22;2.10;;;12.70;99.90;;;;;;5016928;28;20037;-39
2022/05/28 02:01:37;;;;;;;2.50;1.83;;;12.60;99.90;;;;;;5020106;28;20044;-40
2022/05/28 02:04:04;;;;;;;2.70;2.10;;;12.60;99.90;;;;;;5021055;28;20033;-38
2022/05/28 02:06:31;;;;;;;2.28;1.92;;;12.60;99.90;;;;;;5022197;28;20028;-37
2022/05/28 02:08:56;;;;;;;2.90;2.10;;;12.60;99.90;;;;;;5022225;28;20108;-39
2022/05/28 02:11:41;;;;;;;2.35;2.15;;;12.70;99.90;;;;;;5025227;28;20032;-39
2022/05/28 02:14:18;;;;;;;2.55;2.10;;;12.70;99.90;;;;;;5023861;28;20162;-37
2022/05/28 02:17:14;;;;;;;3.75;2.25;;;12.80;99.90;;;;;;5023872;28;20049;-40
2022/05/28 02:20:21;;;;;;;2.33;1.85;;;12.80;99.90;;;;;;5023635;28;20033;-40
2022/05/28 02:22:54;;;;;;;2.97;2.60;;;12.70;99.90;;;;;;5014980;28;20600;-40
2022/05/28 02:25:26;;;;;;;2.30;2.03;;;12.80;99.90;;;;;;5027603;28;20037;-40
2022/05/28 02:27:52;;;;;;;2.72;2.50;;;12.80;99.90;;;;;;5021139;28;20072;-39
2022/05/28 02:30:18;;;;;;;2.20;2.00;;;12.90;99.90;;;;;;5022668;28;20287;-38
2022/05/28 02:32:44;;;;;;;2.72;2.20;;;12.80;99.90;;;;;;5025012;28;20080;-37
2022/05/28 02:35:11;;;;;;;5.05;2.53;;;12.80;99.90;;;;;;5027115;28;20060;-38
2022/05/28 02:37:36;;;;;;;3.28;2.20;;;12.80;99.90;;;;;;5023896;28;20040;-39
2022/05/28 02:40:03;;;;;;;2.67;2.13;;;12.80;99.90;;;;;;5022113;28;20033;-40
2022/05/28 02:42:30;;;;;;;4.88;2.25;;;12.70;99.90;;;;;;5022135;28;20708;-38
2022/05/28 02:44:55;;;;;;;2.53;2.10;;;12.70;99.90;;;;;;5027401;28;20034;-40
2022/05/28 02:47:21;;;;;;;3.15;2.50;;;12.70;99.90;;;;;;5021086;28;20037;-39
2022/05/28 02:49:47;;;;;;;3.50;2.30;;;12.70;99.90;;;;;;5020673;28;20021;-37
2022/05/28 02:52:12;;;;;;;3.40;2.53;;;12.70;99.90;;;;;;5023782;28;20025;-37
2022/05/28 02:54:38;;;;;;;4.00;2.63;;;12.70;99.90;;;;;;5025157;28;20057;-36
2022/05/28 02:57:04;;;;;;;6.00;2.70;;;12.70;99.90;;;;;;5020708;28;20038;-39
2022/05/28 02:59:31;;;;;;;4.70;2.38;;;12.50;99.90;;;;;;5023152;28;20041;-35
2022/05/28 03:01:57;;;;;;;6.63;2.40;;;12.30;99.90;;;;;;5018712;28;20029;-39
2022/05/28 03:04:23;;;;;;;5.28;2.28;;;12.10;99.90;;;;;;5019269;28;20036;-37
2022/05/28 03:06:49;;;;;;;6.18;2.55;;;12.00;99.90;;;;;;5019300;28;20489;-37
2022/05/28 03:09:16;;;;;;;6.22;2.28;;;12.00;99.90;;;;;;5017516;28;20029;-39
2022/05/28 03:11:42;;;;;;;4.38;2.60;;;11.90;99.90;;;;;;5026118;28;20029;-37
2022/05/28 03:14:07;;;;;;;6.25;2.53;;;11.70;99.90;;;;;;5022653;28;20040;-39
2022/05/28 03:16:34;;;;;;;6.50;2.60;;;11.80;99.90;;;;;;5020964;28;20041;-40
2022/05/28 03:18:59;;;;;;;5.25;2.50;;;11.90;99.90;;;;;;5017149;28;20034;-38
2022/05/28 03:21:25;;;;;;;3.78;2.38;;;11.90;99.90;;;;;;5020185;28;20026;-36
2022/05/28 03:23:51;;;;;;;4.72;2.30;;;12.00;99.90;;;;;;5023597;28;20175;-39
2022/05/28 03:26:20;;;;;;;2.78;2.17;;;12.00;99.90;;;;;;5022788;28;20037;-38
2022/05/28 03:28:46;;;;;;;3.38;2.20;;;12.10;99.90;;;;;;5020785;28;20026;-36
2022/05/28 03:31:13;;;;;;;8.55;2.80;;;12.00;99.90;;;;;;5022124;28;20033;-40
2022/05/28 03:33:39;;;;;;;2.92;2.50;;;11.80;99.90;;;;;;5019843;28;20118;-39
2022/05/28 03:36:06;;;;;;;4.13;2.65;;;11.80;99.90;;;;;;5021859;28;20030;-39
2022/05/28 03:38:33;;;;;;;6.05;3.25;;;11.80;99.90;;;;;;5023336;28;20041;-39
2022/05/28 03:40:58;;;;;;;4.63;3.13;;;11.80;99.90;;;;;;5025354;28;20114;-36
2022/05/28 03:43:25;;;;;;;4.35;2.65;;;11.80;99.90;;;;;;5022861;28;20018;-38
2022/05/28 03:45:51;;;;;;;4.65;2.95;;;11.90;99.90;;;;;;5021929;28;20105;-36
2022/05/28 03:48:17;;;;;;;4.20;2.58;;;12.00;99.90;;;;;;5020623;28;20180;-38
2022/05/28 03:50:43;;;;;;;6.25;2.50;;;12.00;99.90;;;;;;5020890;28;20371;-38
2022/05/28 03:53:09;;;;;;;4.13;2.70;;;12.00;99.90;;;;;;5023278;28;20083;-40
2022/05/28 03:55:39;;;;;;;5.47;2.63;;;12.00;99.90;;;;;;5024639;28;20033;-37
2022/05/28 03:58:06;;;;;;;2.33;1.98;;;12.00;99.90;;;;;;5018724;28;20469;-36
2022/05/28 04:00:32;;;;;;;3.05;2.42;;;12.10;99.90;;;;;;5019802;28;20330;-39
2022/05/28 04:02:58;;;;;;;4.65;2.88;;;12.10;99.90;;;;;;5023703;28;20044;-40
2022/05/28 04:05:24;;;;;;;5.65;2.55;;;12.10;99.90;;;;;;5019696;28;20441;-39
2022/05/28 04:07:50;;;;;;;4.28;2.90;;;12.00;99.90;;;;;;5024211;28;20498;-39
2022/05/28 04:10:16;;;;;;;4.22;2.55;;;11.70;99.90;;;;;;5019330;28;20022;-37
2022/05/28 04:12:42;;;;;;;3.78;2.53;;;11.70;99.90;;;;;;5020565;28;20068;-40
2022/05/28 04:15:09;;;;;;;4.72;2.65;;;11.60;99.90;;;;;;5019843;28;20090;-39
2022/05/28 04:17:35;;;;;;;6.70;2.83;;;11.70;99.90;;;;;;5022183;28;20041;-38
2022/05/28 04:20:01;;;;;;;3.92;2.92;;;11.80;99.90;;;;;;5020623;28;20560;-39
2022/05/28 04:22:27;;;;;;;4.78;3.25;;;11.80;99.90;;;;;;5020387;28;20495;-39
2022/05/28 04:24:52;;;;;;;5.40;3.38;;;11.70;99.90;;;;;;5023111;28;20041;-36
2022/05/28 04:27:19;;;;;;;4.05;2.60;;;11.60;99.90;;;;;;5016240;28;20033;-37
2022/05/28 04:29:45;;;;;;;5.93;2.60;;;11.70;99.90;;;;;;5023536;28;20208;-40
2022/05/28 04:32:10;;;;;;;4.68;2.67;;;11.70;99.90;;;;;;5015188;28;20690;-40
2022/05/28 04:34:36;;;;;;;4.85;2.28;;;11.70;99.90;;;;;;5015117;28;20063;-39
2022/05/28 04:37:02;;;;;;;5.47;2.38;;;11.70;99.90;;;;;;5019927;28;20596;-36
2022/05/28 04:39:28;;;;;;;4.90;2.33;;;11.60;99.90;;;;;;5021972;28;20037;-36
2022/05/28 04:41:53;;;;;;;5.63;3.22;;;11.60;99.90;;;;;;5021667;28;20120;-38
2022/05/28 04:44:19;;;;;;;5.40;2.35;;;11.50;99.90;;;;;;5018895;28;20407;-36
2022/05/28 04:46:44;;;;;;;4.75;2.92;;;11.50;99.90;;;;;;5024247;28;20033;-37
2022/05/28 04:49:10;;;;;;;3.85;2.60;;;11.60;99.90;;;;;;5025825;28;20026;-37
2022/05/28 04:51:36;;;;;;;2.97;2.47;;;11.60;99.90;;;;;;5018945;28;20041;-37
2022/05/28 04:54:01;;;;;;;4.47;2.42;;;11.60;99.90;;;;;;5024006;28;20029;-36
2022/05/28 04:56:27;;;;;;;5.38;2.40;;;11.70;99.90;;;;;;5021150;28;20033;-40
2022/05/28 04:58:53;;;;;;;5.75;2.72;;;11.70;99.90;;;;;;5023241;28;20540;-38
2022/05/28 05:01:20;;;;;;;4.13;2.50;;;11.60;99.90;;;;;;5013411;28;20037;-40
2022/05/28 05:03:46;;;;;;;3.65;2.38;;;11.70;99.90;;;;;;5019130;28;20044;-38
2022/05/28 05:06:12;;;;;;;7.28;2.38;;;11.70;99.90;;;;;;5021522;28;20030;-36
2022/05/28 05:08:37;;;;;;;3.60;2.00;;;11.70;99.90;;;;;;5021905;28;20071;-39
2022/05/28 05:11:03;;;;;;;3.00;2.22;;;11.80;99.90;;;;;;5017224;28;20398;-39
2022/05/28 05:13:29;;;;;;;5.43;2.83;;;11.80;99.90;;;;;;5020710;28;20521;-38
2022/05/28 05:15:55;;;;;;;4.68;2.47;;;11.80;99.90;;;;;;5023203;28;20025;-38
2022/05/28 05:18:20;;;;;;;6.25;3.28;;;11.90;99.90;;;;;;5024105;28;20030;-39
2022/05/28 05:20:46;;;;;;;4.00;2.38;;;11.90;99.90;;;;;;5015997;28;20113;-39
2022/05/28 05:23:12;;;;;;;6.82;2.20;;;11.90;99.90;;;;;;5023900;28;20084;-39
2022/05/28 05:25:38;;;;;;;4.22;2.40;;;11.90;99.90;;;;;;5022846;28;20494;-38
2022/05/28 05:28:04;;;;;;;5.03;2.05;;;12.00;99.90;;;;;;5020841;28;20034;-39
2022/05/28 05:30:29;;;;;;;6.20;2.50;;;12.00;99.90;;;;;;5019694;28;20037;-40
2022/05/28 05:32:55;;;;;;;4.03;1.95;;;12.20;99.90;;;;;;5021604;28;20049;-36
2022/05/28 05:35:21;;;;;;;4.30;1.98;;;12.30;99.90;;;;;;5019175;28;20044;-38
2022/05/28 05:37:47;;;;;;;4.28;1.90;;;12.30;99.90;;;;;;5023461;28;20038;-39
2022/05/28 05:40:13;;;;;;;4.82;2.28;;;12.30;99.90;;;;;;5017945;28;20561;-39
2022/05/28 05:42:39;;;;;;;3.70;2.10;;;12.20;99.90;;;;;;5018264;28;20470;-39
2022/05/28 05:45:05;;;;;;;4.22;2.22;;;12.20;99.90;;;;;;5015830;28;20052;-40
2022/05/28 05:47:32;;;;;;;5.10;2.40;;;12.10;99.90;;;;;;5009945;28;20025;-40
2022/05/28 05:49:57;;;;;;;4.03;2.03;;;12.20;99.90;;;;;;5009103;28;20160;-38
2022/05/28 05:52:23;;;;;;;4.20;2.08;;;12.10;99.90;;;;;;5015563;28;20732;-40
2022/05/28 05:54:48;;;;;;;6.70;2.78;;;12.20;99.90;;;;;;5017809;28;21111;-39
2022/05/28 05:57:14;;;;;;;8.27;2.20;;;12.20;99.90;;;;;;5018168;28;20109;-39
2022/05/28 05:59:40;;;;;;;4.00;2.00;;;12.30;99.90;;;;;;5017167;28;20410;-40
2022/05/28 06:02:06;;;;;;;4.63;2.20;;;12.40;99.90;;;;;;5010758;28;20050;-38
2022/05/28 06:04:32;;;;;;;3.88;1.90;;;12.10;99.90;;;;;;5018427;28;20947;-38
2022/05/28 06:06:58;;;;;;;5.43;2.47;;;12.10;99.90;;;;;;5015650;28;20156;-36
2022/05/28 06:09:23;;;;;;;4.28;2.00;;;12.10;99.90;;;;;;5023349;28;20025;-39
2022/05/28 06:11:49;;;;;;;6.35;2.40;;;12.10;99.90;;;;;;5017314;28;20406;-37
2022/05/28 06:14:15;;;;;;;6.65;2.30;;;12.30;99.90;;;;;;5023232;28;20033;-39
2022/05/28 06:16:40;;;;;;;2.97;1.90;;;12.50;99.90;;;;;;5020378;28;20040;-39
2022/05/28 06:19:08;;;;;;;5.53;2.60;;;12.50;99.90;;;;;;5013994;28;20018;-39
2022/05/28 06:21:34;;;;;;;4.97;1.85;;;12.60;99.90;;;;;;5017039;28;20034;-39
2022/05/28 06:24:01;;;;;;;4.78;1.85;;;12.70;99.90;;;;;;5017987;28;20590;-38
2022/05/28 06:26:26;;;;;;;3.35;1.80;;;13.00;99.90;;;;;;5017995;28;20060;-39
2022/05/28 06:28:52;;;;;;;4.88;1.85;;;13.00;99.90;;;;;;5016864;28;20100;-39
2022/05/28 06:31:18;;;;;;;5.90;1.73;;;13.10;99.60;;;;;;5018606;28;20113;-39
2022/05/28 06:33:44;;;;;;;5.40;2.05;;;13.20;95.00;;;;;;5020246;28;20805;-37
2022/05/28 06:36:11;;;;;;;4.35;1.70;;;13.00;92.40;;;;;;5020862;28;20083;-39
2022/05/28 06:38:37;;;;;;;4.95;1.67;;;12.80;93.70;;;;;;5023295;28;20079;-39
2022/05/28 06:41:03;;;;;;;4.93;1.90;;;12.70;96.50;;;;;;5020076;28;20041;-39
2022/05/28 06:43:30;;;;;;;3.95;1.42;;;12.80;96.80;;;;;;5020890;28;20035;-37
2022/05/28 06:45:55;;;;;;;2.45;1.00;;;12.80;92.90;;;;;;5023813;28;20021;-39
2022/05/28 06:48:21;;;;;;;2.60;1.17;;;13.00;84.40;;;;;;5021527;28;20773;-39
2022/05/28 06:51:03;;;;;;;3.17;1.35;;;13.00;84.40;;;;;;5017040;28;20099;-36
2022/05/28 06:53:45;;;;;;;5.60;1.40;;;12.70;84.40;;;;;;5020304;28;20036;-39
2022/05/28 06:56:11;;;;;;;3.38;1.42;;;12.80;79.00;;;;;;5020518;28;20030;-37
2022/05/28 06:58:37;;;;;;;2.13;1.50;;;12.90;88.90;;;;;;5022165;28;20109;-39
2022/05/28 07:01:04;;;;;;;2.67;1.15;;;12.90;90.80;;;;;;5017055;28;20037;-39
2022/05/28 07:03:30;;;;;;;4.18;1.42;;;13.00;91.80;;;;;;5019140;28;20025;-39
2022/05/28 07:05:56;;;;;;;2.40;1.40;;;13.20;90.20;;;;;;5019053;28;20056;-38
2022/05/28 07:08:23;;;;;;;2.97;1.38;;;13.20;90.40;;;;;;5021056;28;20210;-40
2022/05/28 07:10:51;;;;;;;2.30;1.17;;;13.40;91.60;;;;;;5018240;28;20107;-36
2022/05/28 07:13:19;;;;;;;1.58;1.10;;;13.40;92.30;;;;;;5019783;28;20061;-39
2022/05/28 07:15:45;;;;;;;5.57;1.27;;;13.60;89.20;;;;;;5018392;28;20062;-39
2022/05/28 07:18:10;;;;;;;2.55;1.10;;;13.60;75.00;;;;;;5014955;28;20156;-39
2022/05/28 07:20:37;;;;;;;3.47;1.63;;;13.50;73.80;;;;;;5013949;28;20527;-39
2022/05/28 07:23:11;;;;;;;1.95;1.00;;;13.30;74.80;;;;;;5013956;28;20025;-38
2022/05/28 07:25:37;;;;;;;3.30;1.25;;;13.20;74.50;;;;;;5022379;28;20037;-39
2022/05/28 07:28:24;;;;;;;1.00;0.90;;;13.20;81.90;;;;;;5021178;28;20053;-39
2022/05/28 07:30:48;;;;;;;2.00;1.10;;;13.20;75.50;;;;;;5020451;28;20115;-37
2022/05/28 07:33:15;;;;;;;3.35;0.90;;;13.20;69.10;;;;;;5019474;28;20889;-40
2022/05/28 07:35:41;;;;;;;8.25;2.35;;;13.30;69.80;;;;;;5017890;28;20037;-37
2022/05/28 07:38:06;;;;;;;3.78;1.00;;;13.40;71.90;;;;;;5020339;28;20088;-38
2022/05/28 07:40:34;;;;;;;3.97;1.20;;;13.20;68.30;;;;;;5019657;28;20082;-36
2022/05/28 07:43:00;;;;;;;1.67;1.05;;;13.40;74.00;;;;;;5017844;28;20052;-38
2022/05/28 07:45:25;;;;;;;1.95;0.70;;;13.60;73.60;;;;;;5020230;28;20033;-38
2022/05/28 07:47:51;;;;;;;3.85;1.02;;;13.70;74.30;;;;;;5020037;28;20039;-38
2022/05/28 07:50:17;;;;;;;3.83;1.10;;;13.60;82.80;;;;;;5022287;28;20025;-38
2022/05/28 07:52:44;;;;;;;1.65;0.95;;;13.50;82.10;;;;;;5020112;28;20064;-38
2022/05/28 07:55:12;;;;;;;3.00;1.17;;;13.60;77.70;;;;;;5016379;28;20049;-40
2022/05/28 07:57:37;;;;;;;1.43;0.97;;;13.70;72.30;;;;;;5018652;28;20060;-36
2022/05/28 08:00:04;;;;;;;2.90;1.20;;;13.80;73.10;;;;;;5024833;28;20029;-39
2022/05/28 08:02:30;;;;;;;3.08;1.13;;;13.90;76.60;;;;;;5019093;28;20037;-36
2022/05/28 08:04:55;;;;;;;2.28;1.00;;;14.00;78.00;;;;;;5022244;28;20652;-39
2022/05/28 08:07:21;;;;;;;3.65;1.00;;;14.10;71.30;;;;;;5023392;28;20032;-39
2022/05/28 08:09:46;;;;;;;3.35;1.20;;;13.90;63.70;;;;;;5021778;28;20033;-35
2022/05/28 08:12:12;;;;;;;4.05;1.17;;;13.80;67.50;;;;;;5021133;28;20031;-36
2022/05/28 08:14:37;;;;;;;0.93;0.93;;;13.40;65.10;;;;;;5021254;28;20105;-37
2022/05/28 08:17:04;;;;;;;1.38;1.00;;;12.90;64.30;;;;;;5022307;28;20029;-39
2022/05/28 08:19:31;;;;;;;1.67;1.00;;;13.10;69.90;;;;;;5029564;28;20081;-40
2022/05/28 08:24:41;;;;;;;2.45;1.05;;;13.90;75.40;;;;;;5032317;28;20045;-37
2022/05/28 08:27:07;;;;;;;1.45;1.20;;;14.10;83.90;;;;;;5031526;28;20037;-36
2022/05/28 08:29:32;;;;;;;2.88;1.35;;;14.10;78.10;;;;;;5033163;28;20022;-38
2022/05/28 08:31:58;;;;;;;2.30;0.98;;;14.30;80.90;;;;;;5027763;28;20045;-36
2022/05/28 08:34:24;;;;;;;2.25;1.05;;;14.50;69.10;;;;;;5031322;28;20037;-37
2022/05/28 08:36:49;;;;;;;1.77;1.05;;;14.30;66.40;;;;;;5034132;28;20033;-37
2022/05/28 08:39:15;;;;;;;3.38;1.02;;;14.30;70.60;;;;;;5033044;28;20040;-37
2022/05/28 08:41:48;;;;;;;2.65;0.70;;;14.70;67.90;;;;;;5028346;28;20033;-36
2022/05/28 08:44:15;;;;;;;2.55;0.93;;;14.80;62.70;;;;;;5022580;28;20426;-40
2022/05/28 08:46:43;;;;;;;1.07;0.80;;;14.30;62.40;;;;;;5024183;28;20074;-39
2022/05/28 08:49:12;;;;;;;1.90;0.90;;;14.30;66.20;;;;;;5024248;28;20064;-35
2022/05/28 08:51:49;;;;;;;2.90;0.70;;;14.50;67.30;;;;;;5028472;28;20045;-37
2022/05/28 08:54:18;;;;;;;1.57;0.70;;;15.00;67.50;;;;;;5027081;28;20033;-36
2022/05/28 08:56:44;;;;;;;1.08;0.80;;;15.10;59.80;;;;;;5032283;28;20759;-35
2022/05/28 08:59:23;;;;;;;1.67;0.73;;;15.00;68.50;;;;;;5033084;28;20037;-36
2022/05/28 09:01:51;;;;;;;1.70;0.98;;;15.10;64.40;;;;;;5024829;28;20115;-35
2022/05/28 09:04:24;;;;;;;2.75;0.73;;;14.90;71.50;;;;;;5026335;28;20080;-40
2022/05/28 09:06:53;;;;;;;0.85;0.80;;;14.50;77.10;;;;;;5023489;28;20572;-36
2022/05/28 09:09:38;;;;;;;0.90;0.57;;;14.50;79.00;;;;;;5020438;28;20049;-37
2022/05/28 09:12:07;;;;;;;1.05;0.70;;;14.60;67.30;;;;;;5019729;28;20033;-37
2022/05/28 09:14:38;;;;;;;4.40;0.85;;;14.20;73.80;;;;;;5020846;28;20081;-39
2022/05/28 09:17:11;;;;;;;4.13;0.93;;;14.40;74.30;;;;;;5020939;28;20219;-40
2022/05/28 09:19:41;;;;;;;2.22;0.85;;;15.00;66.90;;;;;;5019675;28;20110;-38
2022/05/28 09:22:07;;;;;;;3.38;0.80;;;15.30;60.00;;;;;;5018255;28;20029;-36
2022/05/28 09:24:33;;;;;;;2.20;0.80;;;15.40;63.50;;;;;;5019265;28;20672;-36
2022/05/28 09:27:21;;;;;;;0.52;0.50;;;15.70;62.80;;;;;;5024645;28;20405;-36
2022/05/28 09:29:55;;;;;;;;;;;15.90;57.60;;;;;;5024067;28;20025;-38
2022/05/28 09:32:49;;;;;;;2.15;0.85;;;15.80;59.30;;;;;;5026132;28;19921;-36
2022/05/28 09:35:36;;;;;;;1.33;1.20;;;15.40;60.60;;;;;;5026496;28;20045;-36
2022/05/28 09:38:24;;;;;;;1.40;0.90;;;15.80;61.50;;;;;;5023442;28;20032;-36
2022/05/28 09:40:53;;;;;;;2.15;1.10;;;15.70;59.00;;;;;;5023798;28;20029;-39
2022/05/28 09:43:37;;;;;;;1.02;0.82;;;15.10;60.00;;;;;;5030684;28;20037;-40
2022/05/28 09:46:30;;;;;;;1.85;0.95;;;14.70;63.80;;;;;;5018095;28;20037;-40
2022/05/28 09:49:00;;;;;;;3.95;0.93;;;14.30;74.10;;;;;;5023497;28;20040;-37
2022/05/28 09:51:29;;;;;;;1.75;0.88;;;14.60;66.50;;;;;;5021853;28;20037;-37
2022/05/28 09:54:22;;;;;;;8.48;1.23;;;15.10;58.50;;;;;;5020534;28;20065;-39
2022/05/28 09:57:00;;;;;;;7.18;0.90;;;15.50;63.00;;;;;;5019194;28;20505;-38
2022/05/28 09:59:25;;;;;;;;;;;16.10;56.20;;;;;;5038841;28;20068;-40
2022/05/28 10:02:09;;;;;;;0.80;0.73;;;15.80;55.10;;;;;;5019406;28;19953;-38
2022/05/28 10:04:54;;;;;;;1.95;0.90;;;15.80;60.80;;;;;;5022738;28;20025;-38
2022/05/28 10:07:34;;;;;;;5.70;1.40;;;15.70;58.60;;;;;;5020993;28;20156;-36
2022/05/28 10:10:00;;;;;;;3.55;0.90;;;16.00;59.00;;;;;;5024382;28;20108;-38
2022/05/28 10:12:29;;;;;;;0.77;0.77;;;15.50;55.00;;;;;;5022490;28;20546;-40
2022/05/28 10:15:16;;;;;;;3.13;0.90;;;15.30;59.40;;;;;;5023884;28;20041;-38
2022/05/28 10:17:45;;;;;;;2.33;0.87;;;15.40;60.60;;;;;;5025703;28;20037;-40
2022/05/28 10:20:18;;;;;;;1.83;0.80;;;15.40;56.00;;;;;;5023832;28;20045;-37
2022/05/28 10:22:45;;;;;;;1.02;0.60;;;15.50;55.10;;;;;;5021220;28;20398;-37
2022/05/28 10:25:30;;;;;;;0.90;0.60;;;15.90;58.00;;;;;;5023633;28;20041;-37
2022/05/28 10:27:56;;;;;;;1.92;0.75;;;15.70;53.50;;;;;;5023824;28;20032;-38
2022/05/28 10:30:32;;;;;;;2.40;0.90;;;15.70;51.60;;;;;;5019273;28;20428;-36
2022/05/28 10:33:01;;;;;;;1.52;0.60;;;15.70;53.30;;;;;;5023937;28;20379;-38
2022/05/28 10:35:31;;;;;;;1.88;0.55;;;16.00;56.00;;;;;;5021146;28;20037;-38
2022/05/28 10:38:07;;;;;;;1.75;0.68;;;16.10;54.50;;;;;;5023768;28;20029;-38
2022/05/28 10:40:33;;;;;;;1.17;0.50;;;16.30;52.60;;;;;;5020389;28;20681;-38
2022/05/28 10:43:13;;;;;;;0.90;0.50;;;15.90;49.30;;;;;;5021202;28;20041;-38
2022/05/28 10:45:49;;;;;;;1.67;0.73;;;15.80;49.80;;;;;;5020937;28;20115;-39
2022/05/28 10:48:54;;;;;;;1.02;0.60;;;15.70;52.40;;;;;;5026594;28;20041;-36
2022/05/28 10:51:25;;;;;;;2.15;0.85;;;15.50;53.50;;;;;;5016153;28;20510;-39
2022/05/28 10:54:12;;;;;;;0.70;0.70;;;15.70;55.70;;;;;;5023096;28;20036;-39
2022/05/28 10:56:55;;;;;;;1.63;0.70;;;15.80;51.50;;;;;;5017378;28;20021;-37
2022/05/28 10:59:46;;;;;;;1.63;0.77;;;16.00;51.20;;;;;;5023523;28;20017;-38
2022/05/28 11:02:23;;;;;;;2.17;0.88;;;16.00;53.70;;;;;;5021641;28;20486;-37
2022/05/28 11:05:06;;;;;;;0.88;0.63;;;15.90;53.90;;;;;;5025341;28;20029;-36
2022/05/28 11:08:00;;;;;;;1.35;0.70;;;15.90;53.20;;;;;;5018039;28;20121;-37
2022/05/28 11:11:17;;;;;;;0.50;0.50;;;15.50;51.60;;;;;;5020583;28;20516;-39
2022/05/28 11:13:58;;;;;;;1.77;0.90;;;15.50;52.80;;;;;;4954667;28;20080;-37
2022/05/28 11:16:28;;;;;;;1.85;0.93;;;15.50;50.20;;;;;;5023601;28;20108;-40
2022/05/28 11:18:56;;;;;;;4.25;0.80;;;15.80;54.00;;;;;;5021309;28;20525;-38
2022/05/28 11:21:37;;;;;;;1.95;0.70;;;15.80;51.40;;;;;;5019493;28;20030;-38
2022/05/28 11:24:32;;;;;;;3.38;0.60;;;15.70;52.50;;;;;;5022386;28;20075;-37
2022/05/28 11:27:26;;;;;;;1.70;0.75;;;15.50;50.70;;;;;;5021361;28;20109;-38
2022/05/28 11:30:04;;;;;;;1.08;0.52;;;15.40;51.00;;;;;;5021082;28;20030;-37
2022/05/28 11:32:49;;;;;;;1.95;0.77;;;15.20;48.80;;;;;;5018759;28;20037;-40
2022/05/28 11:35:29;;;;;;;3.33;0.77;;;15.30;52.80;;;;;;5022907;28;20086;-39
2022/05/28 11:38:05;;;;;;;2.40;0.70;;;15.60;50.50;;;;;;5020023;28;20025;-37
2022/05/28 11:40:52;;;;;;;1.58;0.65;;;15.40;53.20;;;;;;5021799;28;20435;-37
2022/05/28 11:43:28;;;;;;;1.88;0.60;;;15.40;51.60;;;;;;5019383;28;20343;-39
2022/05/28 11:46:00;;;;;;;4.00;0.88;;;15.20;51.20;;;;;;5020416;28;20033;-38
2022/05/28 11:51:58;;;;;;;3.53;0.93;;;15.30;52.50;;;;;;5023180;28;20067;-37
2022/05/28 11:54:41;;;;;;;4.70;0.82;;;15.30;51.80;;;;;;5021057;28;20406;-36
2022/05/28 11:57:21;;;;;;;1.52;1.17;;;15.30;50.70;;;;;;5017169;28;20034;-39
2022/05/28 11:59:47;;;;;;;9.30;1.80;;;15.20;50.00;;;;;;5019514;28;20037;-39
2022/05/28 12:02:29;;;;;;;22.33;4.45;;;15.20;52.70;;;;;;5022446;28;20042;-40
2022/05/28 12:04:55;;;;;;;6.35;1.10;;;15.40;55.20;;;;;;5020064;28;20775;-38
2022/05/28 12:07:37;;;;;;;3.67;1.30;;;15.60;51.90;;;;;;5020442;28;20108;-39
2022/05/28 12:10:08;;;;;;;1.25;0.77;;;15.50;53.90;;;;;;5016859;28;20014;-39
2022/05/28 12:12:55;;;;;;;4.10;0.93;;;15.50;54.40;;;;;;5026925;28;20509;-36
2022/05/28 12:15:26;;;;;;;3.58;0.75;;;15.70;54.00;;;;;;5025714;28;20036;-37
2022/05/28 12:18:06;;;;;;;2.88;0.80;;;15.50;49.90;;;;;;5024399;28;20043;-37
2022/05/28 12:20:35;;;;;;;0.47;0.40;;;15.60;50.00;;;;;;5024722;28;20044;-38
2022/05/28 12:23:04;;;;;;;1.98;0.60;;;15.70;52.90;;;;;;5035195;28;20033;-36
2022/05/28 12:25:34;;;;;;;1.88;0.65;;;15.70;53.40;;;;;;5030989;28;20703;-37
2022/05/28 12:28:07;;;;;;;2.05;0.82;;;15.70;56.10;;;;;;5031420;28;20079;-37
2022/05/28 12:30:41;;;;;;;1.85;0.90;;;15.70;55.20;;;;;;5029836;28;20070;-36
2022/05/28 12:33:17;;;;;;;3.67;0.90;;;15.60;52.90;;;;;;5027161;28;20032;-36
2022/05/28 12:35:57;;;;;;;3.13;1.05;;;15.40;53.00;;;;;;5024773;28;20118;-40
2022/05/28 12:38:40;;;;;;;0.70;0.70;;;15.30;54.90;;;;;;5026710;28;20530;-39
2022/05/28 12:41:14;;;;;;;2.83;0.70;;;15.40;52.20;;;;;;5023875;28;20044;-36
2022/05/28 12:43:50;;;;;;;1.63;0.82;;;15.20;54.60;;;;;;5024500;28;20116;-39
2022/05/28 12:46:36;;;;;;;1.75;0.80;;;15.20;53.20;;;;;;5024027;28;20030;-37
2022/05/28 12:49:09;;;;;;;0.77;0.60;;;15.00;51.40;;;;;;5018746;28;20025;-39
2022/05/28 12:51:47;;;;;;;1.88;0.60;;;15.00;53.00;;;;;;5022084;28;20037;-37
2022/05/28 12:54:27;;;;;;;2.83;0.70;;;15.00;52.00;;;;;;5017809;28;20029;-37
2022/05/28 12:57:06;;;;;;;3.70;0.88;;;15.20;54.00;;;;;;5017810;28;21061;-38
2022/05/28 12:59:35;;;;;;;0.70;0.60;;;15.50;54.10;;;;;;5015888;28;20049;-37
2022/05/28 13:02:16;;;;;;;2.53;0.75;;;15.70;55.40;;;;;;5016764;28;20042;-35
2022/05/28 13:04:46;;;;;;;0.50;0.50;;;15.70;54.70;;;;;;5020243;28;20242;-40
2022/05/28 13:07:47;;;;;;;2.17;0.75;;;15.40;52.30;;;;;;5017480;28;20167;-36
2022/05/28 13:10:23;;;;;;;9.55;5.50;;;15.40;57.30;;;;;;5020827;28;20490;-36
2022/05/28 13:13:08;;;;;;;8.02;2.22;;;15.40;60.70;;;;;;5016821;28;20120;-39